Terminal Aerodrome Forecast
Issued by NWS

Home | Current Version | Previous Version | Text Only | Print | Product List | Glossary On
Versions: 1 2 3 4 5 6 7 8 9 10 11 12 13 14 15 16 17 18 19 20 21
000
FTUS41 KRLX 251732
TAFCKB
TAF
KCKB 251732Z 2518/2618 23007KT P6SM SKC
     FM260000 00000KT P6SM SCT060 BKN090
     FM260500 18004KT P6SM BKN050
     FM260600 18004KT 6SM BR BKN045
     FM261300 19004KT P6SM BKN040=

USA.gov is the U.S. government's official web portal to all federal, state and local government web resources and services.